createdAt,value
2023-05-21T00:03:28.409Z,14.82
2023-05-21T00:08:30.548Z,12.90
2023-05-21T00:13:32.216Z,15.73
2023-05-21T00:18:34.364Z,16.88
2023-05-21T00:23:37.630Z,16.52
2023-05-21T00:28:39.544Z,16.73
2023-05-21T00:33:41.258Z,16.58
2023-05-21T00:38:44.130Z,17.13
2023-05-21T00:43:45.980Z,17.33
2023-05-21T00:48:49.344Z,18.05
2023-05-21T00:53:52.959Z,15.32
2023-05-21T00:58:57.231Z,15.65
2023-05-21T01:04:01.816Z,16.27
2023-05-21T01:09:06.475Z,17.05
2023-05-21T01:14:09.445Z,15.48
2023-05-21T01:19:15.457Z,15.85
2023-05-21T01:24:17.553Z,12.25
2023-05-21T01:29:19.435Z,13.93
2023-05-21T01:34:27.176Z,12.48
2023-05-21T01:39:34.010Z,11.90
2023-05-21T01:44:36.977Z,13.50
2023-05-21T01:49:38.842Z,11.00
2023-05-21T01:54:40.626Z,10.13
2023-05-21T01:59:42.351Z,11.23
2023-05-21T02:04:44.288Z,14.27
2023-05-21T02:09:46.065Z,15.07
2023-05-21T02:14:50.355Z,12.73
2023-05-21T02:19:52.343Z,15.88
2023-05-21T02:24:54.810Z,12.82
2023-05-21T02:29:56.507Z,13.60
2023-05-21T02:34:59.121Z,13.98
2023-05-21T02:40:01.880Z,15.40
2023-05-21T02:45:04.842Z,15.50
2023-05-21T02:50:08.188Z,13.98
2023-05-21T02:55:16.358Z,17.40
2023-05-21T03:00:18.100Z,17.33
2023-05-21T03:05:19.962Z,17.08
2023-05-21T03:10:21.701Z,26.75
2023-05-21T03:15:24.014Z,17.17
2023-05-21T03:20:26.900Z,18.45
2023-05-21T03:25:28.908Z,16.08
2023-05-21T03:30:30.588Z,19.65
2023-05-21T03:35:54.503Z,18.27
2023-05-21T03:40:56.711Z,20.90
2023-05-21T03:45:58.796Z,18.00
2023-05-21T03:51:20.717Z,16.55
2023-05-21T03:56:23.181Z,16.85
2023-05-21T04:01:24.966Z,18.85
2023-05-21T04:06:28.176Z,21.13
2023-05-21T04:11:29.853Z,17.13
2023-05-21T04:16:34.531Z,18.25
2023-05-21T04:21:36.482Z,17.88
2023-05-21T04:26:42.114Z,18.75
2023-05-21T04:31:44.580Z,19.00
2023-05-21T04:36:48.730Z,15.48
2023-05-21T04:41:50.784Z,15.68
2023-05-21T04:46:52.932Z,19.27
2023-05-21T04:51:55.078Z,13.55
2023-05-21T04:56:58.100Z,14.48
2023-05-21T05:01:59.919Z,14.48
2023-05-21T05:07:01.832Z,16.25
2023-05-21T05:12:03.993Z,12.07
2023-05-21T05:17:08.078Z,15.02
2023-05-21T05:22:13.339Z,14.95
2023-05-21T05:27:17.874Z,14.50
2023-05-21T05:32:19.603Z,17.70
2023-05-21T05:37:21.748Z,14.25
2023-05-21T05:42:24.224Z,13.60
2023-05-21T05:47:26.329Z,11.93
2023-05-21T05:52:28.216Z,14.52
2023-05-21T05:57:29.958Z,12.38
2023-05-21T06:02:37.658Z,12.73
2023-05-21T06:07:40.229Z,11.70
2023-05-21T06:12:42.011Z,9.57
2023-05-21T06:17:44.008Z,10.95
2023-05-21T06:22:47.565Z,12.32
2023-05-21T06:27:49.268Z,10.38
2023-05-21T06:32:56.287Z,10.80
2023-05-21T06:37:58.789Z,9.13
2023-05-21T06:43:00.525Z,11.45
2023-05-21T06:48:15.946Z,8.25
2023-05-21T06:53:18.243Z,9.52
2023-05-21T06:58:21.547Z,9.50
2023-05-21T07:03:23.778Z,12.85
2023-05-21T07:08:26.456Z,13.73
2023-05-21T07:13:30.029Z,13.30
2023-05-21T07:18:32.303Z,8.38
2023-05-21T07:23:34.219Z,10.20
2023-05-21T07:28:36.321Z,9.98
2023-05-21T07:33:38.131Z,11.95
2023-05-21T07:38:40.566Z,10.65
2023-05-21T07:43:44.152Z,7.82
2023-05-21T07:48:46.577Z,9.55
2023-05-21T07:53:48.355Z,11.45
2023-05-21T07:58:53.909Z,10.63
2023-05-21T08:03:55.984Z,5.85
2023-05-21T08:08:57.900Z,7.68
2023-05-21T08:13:59.872Z,7.55
2023-05-21T08:19:02.485Z,6.53
2023-05-21T08:24:04.449Z,6.85
2023-05-21T08:29:07.009Z,7.80
2023-05-21T08:34:08.999Z,7.65
2023-05-21T08:39:18.538Z,7.05
2023-05-21T08:44:22.049Z,11.48
2023-05-21T08:49:27.446Z,7.65
2023-05-21T08:54:30.884Z,9.07
2023-05-21T08:59:32.872Z,7.75
2023-05-21T09:04:38.839Z,6.57
2023-05-21T09:09:48.901Z,9.68
2023-05-21T09:14:51.061Z,7.28
2023-05-21T09:20:14.492Z,5.32
2023-05-21T09:25:23.516Z,9.35
2023-05-21T09:30:28.547Z,5.20
2023-05-21T09:35:33.468Z,7.63
2023-05-21T09:40:35.934Z,7.55
2023-05-21T09:45:38.113Z,6.07
2023-05-21T09:50:40.971Z,5.60
2023-05-21T09:55:43.279Z,5.60
2023-05-21T10:00:45.864Z,5.65
2023-05-21T10:05:47.590Z,4.38
2023-05-21T10:10:50.098Z,7.55
2023-05-21T10:15:59.458Z,6.80
2023-05-21T10:21:01.807Z,4.45
2023-05-21T10:26:04.189Z,5.50
2023-05-21T10:31:06.728Z,4.55
2023-05-21T10:36:08.775Z,4.88
2023-05-21T10:41:12.371Z,7.95
2023-05-21T10:46:32.418Z,7.57
2023-05-21T10:51:58.642Z,5.88
2023-05-21T10:57:24.747Z,4.47
2023-05-21T11:02:27.586Z,4.63
2023-05-21T11:07:56.515Z,6.00
2023-05-21T11:13:12.253Z,6.30
2023-05-21T11:18:14.248Z,4.65
2023-05-21T11:23:15.901Z,9.70
2023-05-21T11:28:32.952Z,4.85
2023-05-21T11:33:34.623Z,6.88
2023-05-21T11:38:37.547Z,6.72
2023-05-21T11:43:43.912Z,5.47
2023-05-21T11:48:46.729Z,8.13
2023-05-21T11:53:48.958Z,7.85
2023-05-21T11:58:50.715Z,4.03
2023-05-21T12:03:52.460Z,5.30
2023-05-21T12:08:58.216Z,5.57
2023-05-21T12:14:00.198Z,5.47
2023-05-21T12:19:05.485Z,6.72
2023-05-21T12:24:07.181Z,5.43
2023-05-21T12:29:08.978Z,4.38
2023-05-21T12:34:10.872Z,5.63
2023-05-21T12:39:12.686Z,4.50
2023-05-21T12:44:14.591Z,5.38
2023-05-21T12:49:34.001Z,7.35
2023-05-21T12:54:37.752Z,5.40
2023-05-21T12:59:51.430Z,11.25
2023-05-21T13:05:04.861Z,7.50
2023-05-21T13:10:07.513Z,4.18
2023-05-21T13:15:10.497Z,6.43
2023-05-21T13:20:15.044Z,6.47
2023-05-21T13:25:21.526Z,4.97
2023-05-21T13:30:23.343Z,4.30
2023-05-21T13:35:25.208Z,4.78
2023-05-21T13:40:26.882Z,5.28
2023-05-21T13:45:29.379Z,4.18
2023-05-21T13:50:31.414Z,5.65
2023-05-21T13:55:33.572Z,7.43
2023-05-21T14:00:35.675Z,6.15
2023-05-21T14:05:37.559Z,5.50
2023-05-21T14:10:39.226Z,6.03
2023-05-21T14:15:41.598Z,3.97
2023-05-21T14:20:43.220Z,3.88
2023-05-21T14:25:44.985Z,5.57
2023-05-21T14:30:46.618Z,6.10
2023-05-21T14:35:48.879Z,7.93
2023-05-21T14:40:50.635Z,3.42
2023-05-21T14:45:52.725Z,3.80
2023-05-21T14:50:54.477Z,3.08
2023-05-21T14:55:56.091Z,7.32
2023-05-21T15:00:58.100Z,6.80
2023-05-21T15:05:59.809Z,3.90
2023-05-21T15:11:01.497Z,4.40
2023-05-21T15:16:03.731Z,3.50
2023-05-21T15:21:05.765Z,4.75
2023-05-21T15:26:09.047Z,4.32
2023-05-21T15:31:11.444Z,6.60
2023-05-21T15:36:13.384Z,3.90
2023-05-21T15:41:15.071Z,9.20
2023-05-21T15:46:16.774Z,4.63
2023-05-21T15:51:18.414Z,7.03
2023-05-21T15:56:20.060Z,6.85
2023-05-21T16:01:22.305Z,7.07
2023-05-21T16:06:24.487Z,4.07
2023-05-21T16:11:27.088Z,6.75
2023-05-21T16:16:28.856Z,6.13
2023-05-21T16:21:31.916Z,3.53
2023-05-21T16:26:33.645Z,4.72
2023-05-21T16:31:35.978Z,3.10
2023-05-21T16:36:38.370Z,4.32
2023-05-21T16:41:40.044Z,8.98
2023-05-21T16:46:42.280Z,3.90
2023-05-21T16:51:43.882Z,5.05
2023-05-21T16:56:45.519Z,7.20
2023-05-21T17:01:47.408Z,3.80
2023-05-21T17:06:49.136Z,8.82
2023-05-21T17:11:50.992Z,3.05
2023-05-21T17:16:52.752Z,4.63
2023-05-21T17:21:55.329Z,4.78
2023-05-21T17:26:57.015Z,4.03
2023-05-21T17:31:59.801Z,4.10
2023-05-21T17:37:01.559Z,4.10
2023-05-21T17:42:03.310Z,6.03
2023-05-21T17:47:06.625Z,4.20
2023-05-21T17:52:08.444Z,3.78
2023-05-21T17:57:10.149Z,3.25
2023-05-21T18:02:13.174Z,3.88
2023-05-21T18:07:14.836Z,8.65
2023-05-21T18:12:16.534Z,4.57
2023-05-21T18:17:18.248Z,4.72
2023-05-21T18:22:19.900Z,7.78
2023-05-21T18:27:21.540Z,12.43
2023-05-21T18:32:23.447Z,8.48
2023-05-21T18:37:27.120Z,5.78
2023-05-21T18:42:29.019Z,7.88
2023-05-21T18:47:30.917Z,8.70
2023-05-21T18:52:32.769Z,9.52
2023-05-21T18:57:34.787Z,5.55
2023-05-21T19:02:37.096Z,6.18
2023-05-21T19:07:39.773Z,4.78
2023-05-21T19:12:43.493Z,6.57
2023-05-21T19:17:45.121Z,5.10
2023-05-21T19:22:46.777Z,8.27
2023-05-21T19:27:48.523Z,7.40
2023-05-21T19:32:50.213Z,6.47
2023-05-21T19:37:51.925Z,7.78
2023-05-21T19:42:53.635Z,7.47
2023-05-21T19:47:56.430Z,7.32
2023-05-21T19:52:58.156Z,6.15
2023-05-21T19:57:59.988Z,7.30
2023-05-21T20:03:01.847Z,6.68
2023-05-21T20:08:04.274Z,5.53
2023-05-21T20:13:06.009Z,9.20
2023-05-21T20:18:07.789Z,5.00
2023-05-21T20:23:09.513Z,8.00
2023-05-21T20:28:11.311Z,8.15
2023-05-21T20:33:13.603Z,6.90
2023-05-21T20:38:15.947Z,6.28
2023-05-21T20:43:21.027Z,7.90
2023-05-21T20:48:22.672Z,8.52
2023-05-21T20:53:25.273Z,8.10
2023-05-21T20:58:27.064Z,7.03
2023-05-21T21:03:29.854Z,7.03
2023-05-21T21:08:31.939Z,6.75
2023-05-21T21:13:34.935Z,9.95
2023-05-21T21:18:36.773Z,7.10
2023-05-21T21:23:38.464Z,7.78
2023-05-21T21:28:40.190Z,7.00
2023-05-21T21:33:41.872Z,6.30
2023-05-21T21:38:43.553Z,6.00
2023-05-21T21:43:45.401Z,6.07
2023-05-21T21:48:48.937Z,6.32
2023-05-21T21:53:51.106Z,5.68
2023-05-21T21:58:52.750Z,8.60
2023-05-21T22:03:54.482Z,5.78
2023-05-21T22:08:56.166Z,8.23
2023-05-21T22:14:00.336Z,9.60
2023-05-21T22:19:02.383Z,6.38
2023-05-21T22:24:04.373Z,6.88
2023-05-21T22:29:06.162Z,11.27
2023-05-21T22:34:07.824Z,6.68
2023-05-21T22:39:09.441Z,6.18
2023-05-21T22:44:11.176Z,6.82
2023-05-21T22:49:13.167Z,7.63
2023-05-21T22:54:14.779Z,8.18
2023-05-21T22:59:16.394Z,10.25
2023-05-21T23:04:18.211Z,6.90
2023-05-21T23:09:21.090Z,8.38
2023-05-21T23:14:22.709Z,6.30
2023-05-21T23:19:24.458Z,6.53
2023-05-21T23:24:26.106Z,9.98
2023-05-21T23:29:28.095Z,7.78
2023-05-21T23:34:29.771Z,9.43
2023-05-21T23:39:31.420Z,6.90
2023-05-21T23:44:33.293Z,6.97
2023-05-21T23:49:34.956Z,8.07
2023-05-21T23:54:36.614Z,7.00
2023-05-21T23:59:38.220Z,7.72
